createdAt,value
2023-03-31T00:02:21.918Z,3.30
2023-03-31T00:04:49.710Z,4.27
2023-03-31T00:07:26.414Z,4.47
2023-03-31T00:09:58.542Z,3.97
2023-03-31T00:12:34.480Z,3.63
2023-03-31T00:15:01.749Z,4.40
2023-03-31T00:17:45.734Z,3.10
2023-03-31T00:20:25.607Z,3.23
2023-03-31T00:26:03.050Z,4.00
2023-03-31T00:28:30.418Z,3.80
2023-03-31T00:31:00.806Z,3.10
2023-03-31T00:33:29.531Z,3.60
2023-03-31T00:35:56.774Z,3.47
2023-03-31T00:41:41.349Z,3.87
2023-03-31T00:44:11.096Z,3.30
2023-03-31T00:46:41.317Z,4.37
2023-03-31T00:55:58.321Z,4.03
2023-03-31T00:58:26.836Z,3.87
2023-03-31T01:00:54.525Z,4.03
2023-03-31T01:03:23.385Z,5.23
2023-03-31T01:05:52.445Z,4.70
2023-03-31T01:08:20.603Z,4.63
2023-03-31T01:10:50.560Z,4.23
2023-03-31T01:13:19.626Z,4.33
2023-03-31T01:15:47.017Z,3.73
2023-03-31T01:18:39.987Z,5.57
2023-03-31T01:21:29.592Z,5.00
2023-03-31T01:27:20.163Z,5.23
2023-03-31T01:30:02.310Z,5.13
2023-03-31T01:32:44.532Z,4.20
2023-03-31T01:35:20.509Z,4.27
2023-03-31T01:40:35.036Z,4.50
2023-03-31T01:43:06.967Z,3.80
2023-03-31T01:45:39.473Z,3.00
2023-03-31T01:48:30.668Z,4.23
2023-03-31T01:54:39.923Z,3.63
2023-03-31T01:57:12.770Z,4.50
2023-03-31T01:59:41.841Z,4.70
2023-03-31T02:02:11.392Z,4.67
2023-03-31T02:04:40.725Z,4.87
2023-03-31T02:07:25.337Z,6.70
2023-03-31T02:09:56.724Z,4.47
2023-03-31T02:12:26.842Z,4.00
2023-03-31T02:14:55.693Z,4.07
2023-03-31T02:17:42.890Z,4.10
2023-03-31T02:24:26.727Z,3.43
2023-03-31T02:26:55.917Z,4.20
2023-03-31T02:29:24.749Z,3.93
2023-03-31T02:31:55.436Z,4.07
2023-03-31T02:34:22.832Z,3.60
2023-03-31T02:37:08.629Z,3.43
2023-03-31T02:39:37.386Z,4.43
2023-03-31T02:42:04.986Z,3.40
2023-03-31T02:44:33.643Z,4.33
2023-03-31T02:47:20.831Z,4.47
2023-03-31T02:50:04.198Z,3.70
2023-03-31T02:52:55.457Z,3.60
2023-03-31T02:58:56.770Z,3.23
2023-03-31T03:01:42.304Z,4.50
2023-03-31T03:04:17.523Z,3.43
2023-03-31T03:07:02.950Z,3.07
2023-03-31T03:09:35.839Z,3.83
2023-03-31T03:12:08.493Z,3.37
2023-03-31T03:14:37.663Z,3.00
2023-03-31T03:17:26.754Z,2.73
2023-03-31T03:23:55.207Z,2.40
2023-03-31T03:26:24.108Z,2.33
2023-03-31T03:28:51.542Z,2.33
2023-03-31T03:31:18.838Z,2.50
2023-03-31T03:33:46.339Z,2.60
2023-03-31T03:36:13.656Z,2.27
2023-03-31T03:38:41.265Z,2.27
2023-03-31T03:41:08.633Z,2.53
2023-03-31T03:43:37.440Z,3.47
2023-03-31T03:46:05.447Z,2.30
2023-03-31T03:52:20.317Z,2.90
2023-03-31T03:54:47.675Z,3.93
2023-03-31T03:57:15.440Z,3.13
2023-03-31T03:59:44.170Z,3.90
2023-03-31T04:02:11.779Z,3.83
2023-03-31T04:04:39.188Z,3.53
2023-03-31T04:07:21.781Z,3.13
2023-03-31T04:09:49.012Z,3.47
2023-03-31T04:12:16.369Z,3.97
2023-03-31T04:14:45.311Z,3.83
2023-03-31T04:17:33.506Z,3.33
2023-03-31T04:20:25.059Z,3.93
2023-03-31T04:23:07.837Z,4.90
2023-03-31T04:25:35.117Z,3.70
2023-03-31T04:28:02.421Z,4.07
2023-03-31T04:30:31.318Z,3.03
2023-03-31T04:32:59.445Z,3.50
2023-03-31T04:35:28.049Z,3.50
2023-03-31T04:37:55.459Z,4.00
2023-03-31T04:40:22.715Z,3.00
2023-03-31T04:42:50.012Z,2.90
2023-03-31T04:45:17.634Z,3.20
2023-03-31T04:51:40.958Z,3.13
2023-03-31T04:54:09.677Z,3.17
2023-03-31T04:56:37.031Z,2.47
2023-03-31T04:59:05.551Z,2.60
2023-03-31T05:01:33.357Z,3.80
2023-03-31T05:04:00.761Z,2.30
2023-03-31T05:06:43.196Z,2.33
2023-03-31T05:09:12.016Z,2.30
2023-03-31T05:11:39.278Z,2.20
2023-03-31T05:14:06.542Z,2.40
2023-03-31T05:20:24.800Z,2.30
2023-03-31T05:22:52.115Z,2.60
2023-03-31T05:25:20.680Z,2.23
2023-03-31T05:27:48.119Z,2.57
2023-03-31T05:30:15.440Z,2.60
2023-03-31T05:32:42.737Z,2.10
2023-03-31T05:37:59.589Z,2.77
2023-03-31T05:40:28.279Z,2.47
2023-03-31T05:42:55.918Z,1.97
2023-03-31T05:45:23.266Z,2.60
2023-03-31T05:47:50.702Z,2.60
2023-03-31T05:50:24.507Z,3.07
2023-03-31T05:53:13.701Z,3.17
2023-03-31T05:55:59.078Z,3.53
2023-03-31T05:58:26.704Z,3.10
2023-03-31T06:01:01.286Z,2.67
2023-03-31T06:03:28.665Z,2.83
2023-03-31T06:05:56.064Z,1.87
2023-03-31T06:08:23.320Z,2.97
2023-03-31T06:10:50.649Z,2.10
2023-03-31T06:13:19.332Z,2.40
2023-03-31T06:15:53.553Z,2.30
2023-03-31T06:18:20.946Z,3.20
2023-03-31T06:21:22.577Z,2.80
2023-03-31T06:27:25.320Z,3.93
2023-03-31T06:29:54.258Z,3.50
2023-03-31T06:32:21.464Z,3.13
2023-03-31T06:34:48.795Z,3.83
2023-03-31T06:37:16.053Z,3.23
2023-03-31T06:39:43.546Z,3.67
2023-03-31T06:42:11.211Z,3.80
2023-03-31T06:44:41.295Z,3.20
2023-03-31T06:47:09.928Z,2.80
2023-03-31T06:49:37.353Z,2.50
2023-03-31T06:52:04.992Z,3.17
2023-03-31T06:54:32.393Z,3.03
2023-03-31T06:56:59.660Z,3.50
2023-03-31T06:59:26.964Z,2.93
2023-03-31T07:01:54.360Z,3.50
2023-03-31T07:04:23.095Z,3.60
2023-03-31T07:06:50.421Z,4.87
2023-03-31T07:12:04.330Z,4.30
2023-03-31T07:14:31.678Z,4.53
2023-03-31T07:16:58.978Z,3.90
2023-03-31T07:19:27.555Z,4.03
2023-03-31T07:21:55.068Z,4.00
2023-03-31T07:34:11.276Z,4.23
2023-03-31T07:36:39.878Z,3.90
2023-03-31T07:39:07.326Z,4.33
2023-03-31T07:41:40.229Z,4.47
2023-03-31T07:44:07.610Z,4.70
2023-03-31T07:46:34.946Z,4.60
2023-03-31T07:49:02.384Z,6.60
2023-03-31T07:51:29.632Z,4.87
2023-03-31T07:53:58.596Z,4.60
2023-03-31T07:56:31.296Z,4.10
2023-03-31T07:58:58.731Z,3.93
2023-03-31T08:01:26.913Z,3.80
2023-03-31T08:03:54.502Z,4.30
2023-03-31T08:10:15.514Z,3.90
2023-03-31T08:12:42.883Z,3.80
2023-03-31T08:15:10.630Z,4.80
2023-03-31T08:17:40.260Z,4.83
2023-03-31T08:20:08.440Z,4.57
2023-03-31T08:22:35.960Z,4.40
2023-03-31T08:25:09.412Z,5.73
2023-03-31T08:27:39.848Z,5.70
2023-03-31T08:30:07.852Z,5.17
2023-03-31T08:32:35.576Z,5.10
2023-03-31T08:35:31.080Z,4.83
2023-03-31T08:41:43.747Z,5.37
2023-03-31T08:44:16.032Z,7.90
2023-03-31T08:46:43.734Z,5.50
2023-03-31T08:49:14.528Z,3.57
2023-03-31T08:51:42.733Z,5.53
2023-03-31T08:54:15.007Z,5.03
2023-03-31T08:56:45.454Z,3.77
2023-03-31T08:59:18.366Z,4.27
2023-03-31T09:01:56.318Z,4.93
2023-03-31T09:04:29.194Z,4.60
2023-03-31T09:07:00.045Z,5.77
2023-03-31T09:12:02.606Z,5.63
2023-03-31T09:14:34.100Z,4.03
2023-03-31T09:17:07.893Z,6.73
2023-03-31T09:19:38.397Z,4.97
2023-03-31T09:22:07.380Z,6.77
2023-03-31T09:31:22.846Z,5.87
2023-03-31T09:33:52.716Z,5.97
2023-03-31T09:36:21.270Z,5.33
2023-03-31T09:38:48.841Z,5.80
2023-03-31T09:41:16.908Z,6.50
2023-03-31T09:43:44.205Z,4.40
2023-03-31T09:46:16.313Z,5.63
2023-03-31T09:48:50.503Z,6.40
2023-03-31T09:51:19.772Z,5.40
2023-03-31T09:53:49.692Z,6.23
2023-03-31T09:56:32.800Z,5.87
2023-03-31T09:59:02.175Z,6.20
2023-03-31T10:01:29.844Z,5.83
2023-03-31T10:03:58.565Z,7.20
2023-03-31T10:06:26.355Z,5.87
2023-03-31T10:08:56.128Z,5.67
2023-03-31T10:11:23.822Z,6.10
2023-03-31T10:13:51.350Z,4.97
2023-03-31T10:16:22.983Z,4.70
2023-03-31T10:18:50.707Z,5.10
2023-03-31T10:21:21.553Z,4.60
2023-03-31T10:23:49.731Z,4.53
2023-03-31T10:26:18.270Z,3.97
2023-03-31T10:28:55.503Z,4.17
2023-03-31T10:31:38.354Z,5.10
2023-03-31T10:34:18.776Z,4.60
2023-03-31T10:36:49.261Z,4.57
2023-03-31T10:39:17.737Z,4.43
2023-03-31T10:41:50.415Z,4.03
2023-03-31T10:44:31.806Z,3.40
2023-03-31T10:47:04.752Z,4.37
2023-03-31T10:49:39.918Z,4.20
2023-03-31T10:52:16.473Z,3.60
2023-03-31T10:54:47.706Z,4.43
2023-03-31T10:57:16.192Z,3.83
2023-03-31T11:00:02.394Z,4.63
2023-03-31T11:02:49.189Z,3.70
2023-03-31T11:05:20.152Z,5.37
2023-03-31T11:07:53.594Z,4.07
2023-03-31T11:10:35.738Z,3.57
2023-03-31T11:13:05.787Z,4.20
2023-03-31T11:15:37.646Z,3.37
2023-03-31T11:20:52.520Z,3.80
2023-03-31T11:23:26.061Z,3.47
2023-03-31T11:25:56.354Z,3.33
2023-03-31T11:35:55.134Z,2.97
2023-03-31T11:38:40.356Z,3.03
2023-03-31T11:41:12.336Z,3.53
2023-03-31T11:43:43.697Z,3.33
2023-03-31T11:46:13.108Z,2.97
2023-03-31T11:48:56.730Z,2.67
2023-03-31T11:51:26.101Z,3.30
2023-03-31T11:53:54.856Z,2.87
2023-03-31T11:56:25.968Z,3.00
2023-03-31T12:02:45.965Z,2.70
2023-03-31T12:05:14.053Z,4.03
2023-03-31T12:07:44.857Z,3.37
2023-03-31T12:10:18.738Z,2.70
2023-03-31T12:12:49.580Z,3.60
2023-03-31T12:15:20.431Z,3.47
2023-03-31T12:17:56.806Z,4.30
2023-03-31T12:20:27.496Z,3.47
2023-03-31T12:22:55.258Z,3.63
2023-03-31T12:25:23.087Z,3.93
2023-03-31T12:28:11.137Z,3.43
2023-03-31T12:31:03.228Z,3.03
2023-03-31T12:33:44.153Z,3.93
2023-03-31T12:36:17.638Z,3.73
2023-03-31T12:38:56.072Z,4.07
2023-03-31T12:41:26.181Z,3.80
2023-03-31T12:44:01.388Z,3.10
2023-03-31T12:49:38.893Z,2.53
2023-03-31T12:52:07.658Z,3.37
2023-03-31T12:54:49.401Z,3.40
2023-03-31T12:57:23.519Z,3.23
2023-03-31T13:06:54.469Z,3.43
2023-03-31T13:09:42.403Z,3.00
2023-03-31T13:12:10.512Z,3.60
2023-03-31T13:14:38.333Z,3.13
2023-03-31T13:19:48.097Z,2.50
2023-03-31T13:22:29.794Z,3.43
2023-03-31T13:25:27.489Z,3.27
2023-03-31T13:34:37.795Z,3.30
2023-03-31T13:37:11.957Z,2.60
2023-03-31T13:39:49.041Z,3.47
2023-03-31T13:42:34.299Z,3.10
2023-03-31T13:45:06.213Z,3.00
2023-03-31T13:47:49.799Z,3.60
2023-03-31T13:50:22.421Z,2.90
2023-03-31T13:52:55.960Z,3.17
2023-03-31T13:55:37.388Z,3.10
2023-03-31T14:01:55.535Z,3.07
2023-03-31T14:04:31.732Z,3.33
2023-03-31T14:07:00.087Z,4.33
2023-03-31T14:09:30.238Z,4.00
2023-03-31T14:11:59.468Z,3.77
2023-03-31T14:14:26.904Z,3.03
2023-03-31T14:17:11.526Z,3.30
2023-03-31T14:19:47.675Z,3.60
2023-03-31T14:22:20.264Z,3.17
2023-03-31T14:24:51.689Z,3.03
2023-03-31T14:27:55.547Z,3.00
2023-03-31T14:33:33.396Z,3.23
2023-03-31T14:36:09.640Z,3.60
2023-03-31T14:38:36.915Z,3.57
2023-03-31T14:41:04.420Z,4.10
2023-03-31T14:43:32.954Z,3.50
2023-03-31T14:48:50.816Z,3.73
2023-03-31T14:51:24.890Z,3.43
2023-03-31T14:53:56.814Z,3.70
2023-03-31T14:56:32.326Z,3.17
2023-03-31T14:59:11.944Z,3.67
2023-03-31T15:01:59.667Z,3.50
2023-03-31T15:04:41.247Z,3.70
2023-03-31T15:07:11.645Z,3.53
2023-03-31T15:09:39.339Z,3.73
2023-03-31T15:12:08.399Z,3.07
2023-03-31T15:14:37.212Z,3.53
2023-03-31T15:17:04.549Z,3.60
2023-03-31T15:19:34.037Z,3.63
2023-03-31T15:22:03.581Z,3.87
2023-03-31T15:24:32.753Z,3.43
2023-03-31T15:30:21.846Z,3.60
2023-03-31T15:32:49.273Z,3.07
2023-03-31T15:35:22.308Z,3.40
2023-03-31T15:37:50.912Z,3.77
2023-03-31T15:40:21.870Z,4.97
2023-03-31T15:43:01.970Z,3.97
2023-03-31T15:45:54.609Z,3.87
2023-03-31T15:48:23.357Z,3.30
2023-03-31T15:50:50.666Z,3.33
2023-03-31T15:53:35.640Z,3.60
2023-03-31T15:56:22.640Z,3.40
2023-03-31T16:02:04.300Z,3.30
2023-03-31T16:04:32.063Z,2.80
2023-03-31T16:07:00.596Z,4.27
2023-03-31T16:09:30.240Z,3.77
2023-03-31T16:11:58.477Z,3.60
2023-03-31T16:14:27.187Z,3.93
2023-03-31T16:16:56.285Z,3.67
2023-03-31T16:19:25.814Z,3.53
2023-03-31T16:21:54.489Z,4.23
2023-03-31T16:24:22.251Z,4.10
2023-03-31T16:26:49.649Z,3.20
2023-03-31T16:29:20.846Z,3.20
2023-03-31T16:35:09.913Z,3.27
2023-03-31T16:37:37.277Z,3.80
2023-03-31T16:40:05.261Z,2.90
2023-03-31T16:42:32.519Z,3.07
2023-03-31T16:45:13.109Z,3.57
2023-03-31T16:47:45.827Z,3.10
2023-03-31T16:53:03.995Z,2.93
2023-03-31T16:55:31.333Z,3.27
2023-03-31T16:57:58.679Z,3.03
2023-03-31T17:07:11.789Z,6.07
2023-03-31T17:09:40.667Z,5.40
2023-03-31T17:12:07.942Z,5.50
2023-03-31T17:14:35.243Z,6.27
2023-03-31T17:17:02.525Z,6.70
2023-03-31T17:22:19.700Z,5.43
2023-03-31T17:24:48.790Z,6.33
2023-03-31T17:27:16.211Z,5.00
2023-03-31T17:29:43.491Z,6.07
2023-03-31T17:32:10.993Z,6.67
2023-03-31T17:34:56.582Z,6.50
2023-03-31T17:40:46.666Z,7.53
2023-03-31T17:43:15.471Z,7.87
2023-03-31T17:45:42.677Z,6.07
2023-03-31T17:48:10.045Z,7.97
2023-03-31T17:50:37.866Z,9.37
2023-03-31T17:53:05.576Z,8.03
2023-03-31T17:58:24.324Z,7.57
2023-03-31T18:00:51.630Z,6.67
2023-03-31T18:03:18.910Z,7.77
2023-03-31T18:05:46.267Z,7.27
2023-03-31T18:08:13.598Z,6.07
2023-03-31T18:14:35.189Z,7.67
2023-03-31T18:17:03.870Z,6.23
2023-03-31T18:19:31.342Z,8.53
2023-03-31T18:21:58.769Z,8.93
2023-03-31T18:24:26.490Z,7.30
2023-03-31T18:26:54.091Z,5.40
2023-03-31T18:29:33.724Z,6.33
2023-03-31T18:32:01.192Z,5.30
2023-03-31T18:34:29.980Z,6.53
2023-03-31T18:36:57.259Z,4.83
2023-03-31T18:46:40.673Z,7.47
2023-03-31T18:49:08.013Z,8.63
2023-03-31T18:51:36.917Z,8.23
2023-03-31T18:54:04.584Z,8.37
2023-03-31T18:56:31.855Z,8.57
2023-03-31T18:59:14.697Z,8.20
2023-03-31T19:01:42.251Z,8.33
2023-03-31T19:04:09.800Z,9.27
2023-03-31T19:06:38.450Z,8.93
2023-03-31T19:09:29.227Z,7.97
2023-03-31T19:15:34.578Z,7.13
2023-03-31T19:18:01.863Z,5.87
2023-03-31T19:20:29.129Z,6.17
2023-03-31T19:22:57.801Z,5.33
2023-03-31T19:25:25.008Z,4.70
2023-03-31T19:30:28.497Z,4.60
2023-03-31T19:32:56.113Z,7.40
2023-03-31T19:35:23.444Z,6.57
2023-03-31T19:37:51.004Z,6.13
2023-03-31T19:44:09.128Z,5.83
2023-03-31T19:46:36.444Z,7.40
2023-03-31T19:49:03.726Z,5.13
2023-03-31T19:51:31.060Z,7.77
2023-03-31T19:53:58.704Z,6.73
2023-03-31T19:56:26.116Z,7.20
2023-03-31T19:59:10.463Z,7.63
2023-03-31T20:01:38.218Z,6.00
2023-03-31T20:04:06.225Z,3.63
2023-03-31T20:06:35.112Z,6.37
2023-03-31T20:12:35.433Z,6.93
2023-03-31T20:15:04.382Z,6.50
2023-03-31T20:17:31.578Z,7.07
2023-03-31T20:19:58.941Z,7.23
2023-03-31T20:22:26.413Z,7.13
2023-03-31T20:24:53.672Z,5.43
2023-03-31T20:30:12.553Z,7.40
2023-03-31T20:32:40.165Z,6.03
2023-03-31T20:35:07.576Z,7.30
2023-03-31T20:37:47.589Z,6.20
2023-03-31T20:40:27.670Z,8.30
2023-03-31T20:43:10.356Z,6.30
2023-03-31T20:45:38.972Z,7.03
2023-03-31T20:48:06.333Z,7.07
2023-03-31T20:50:33.714Z,5.00
2023-03-31T20:53:00.930Z,5.63
2023-03-31T20:55:28.272Z,6.60
2023-03-31T20:57:55.999Z,6.73
2023-03-31T21:00:23.679Z,5.90
2023-03-31T21:02:52.436Z,4.83
2023-03-31T21:05:19.779Z,5.97
2023-03-31T21:08:08.747Z,5.90
2023-03-31T21:11:01.703Z,8.33
2023-03-31T21:13:34.624Z,5.37
2023-03-31T21:16:02.419Z,6.27
2023-03-31T21:18:31.651Z,5.23
2023-03-31T21:20:59.596Z,5.60
2023-03-31T21:23:27.639Z,5.87
2023-03-31T21:25:55.578Z,5.90
2023-03-31T21:28:24.067Z,6.60
2023-03-31T21:30:51.516Z,6.77
2023-03-31T21:33:19.428Z,5.53
2023-03-31T21:35:48.129Z,5.37
2023-03-31T21:42:06.457Z,3.97
2023-03-31T21:44:33.717Z,4.93
2023-03-31T21:47:00.930Z,5.13
2023-03-31T21:49:28.152Z,4.57
2023-03-31T21:51:56.722Z,4.23
2023-03-31T21:54:23.982Z,5.50
2023-03-31T21:59:40.908Z,8.40
2023-03-31T22:02:08.364Z,10.40
2023-03-31T22:04:35.656Z,7.73
2023-03-31T22:07:04.834Z,9.13
2023-03-31T22:09:32.029Z,9.87
2023-03-31T22:18:45.653Z,9.60
2023-03-31T22:21:16.867Z,10.43
2023-03-31T22:23:45.615Z,9.70
2023-03-31T22:26:13.232Z,9.10
2023-03-31T22:28:40.511Z,8.80
2023-03-31T22:31:27.964Z,9.20
2023-03-31T22:33:55.281Z,7.40
2023-03-31T22:36:22.767Z,13.53
2023-03-31T22:38:52.276Z,10.97
2023-03-31T22:47:40.720Z,10.87
2023-03-31T22:50:08.460Z,7.87
2023-03-31T22:52:35.690Z,9.07
2023-03-31T22:55:04.611Z,9.07
2023-03-31T22:57:32.181Z,8.57
2023-03-31T22:59:59.449Z,7.70
2023-03-31T23:02:27.106Z,9.37
2023-03-31T23:04:54.412Z,7.87
2023-03-31T23:07:21.900Z,9.93
2023-03-31T23:09:49.346Z,8.97
2023-03-31T23:12:36.382Z,9.73
2023-03-31T23:18:13.880Z,11.13
2023-03-31T23:20:41.175Z,9.33
2023-03-31T23:23:08.405Z,11.30
2023-03-31T23:25:35.590Z,10.43
2023-03-31T23:28:04.312Z,11.50
2023-03-31T23:30:37.200Z,10.93
2023-03-31T23:33:04.714Z,10.90
2023-03-31T23:35:32.269Z,12.50
2023-03-31T23:37:59.698Z,13.07
2023-03-31T23:40:27.003Z,9.50
2023-03-31T23:43:08.434Z,11.07
2023-03-31T23:45:51.150Z,10.00
2023-03-31T23:48:18.377Z,11.13
2023-03-31T23:50:45.936Z,13.10
2023-03-31T23:53:13.560Z,12.40
2023-03-31T23:55:40.901Z,9.40
2023-03-31T23:58:09.551Z,10.23
